createdAt,value
2018-07-14T00:00:10.527Z,99612.53
2018-07-14T00:02:39.407Z,99619.58
2018-07-14T00:05:08.238Z,99608.45
2018-07-14T00:07:36.965Z,99607.14
2018-07-14T00:10:05.821Z,99610.93
2018-07-14T00:12:34.531Z,99607.95
2018-07-14T00:15:03.250Z,99610.39
2018-07-14T00:17:31.975Z,99603.88
2018-07-14T00:20:00.734Z,99607.69
2018-07-14T00:22:29.450Z,99600.84
2018-07-14T00:24:58.224Z,99601.15
2018-07-14T00:27:26.941Z,99599.53
2018-07-14T00:29:55.658Z,99598.98
2018-07-14T00:32:24.394Z,99600.58
2018-07-14T00:34:53.096Z,99600.58
2018-07-14T00:37:21.842Z,99600.61
2018-07-14T00:39:50.565Z,99600.87
2018-07-14T00:42:19.245Z,99607.69
2018-07-14T00:44:48.015Z,99603.09
2018-07-14T00:47:16.742Z,99602.27
2018-07-14T00:49:45.441Z,99600.41
2018-07-14T00:52:14.156Z,99600.15
2018-07-14T00:54:42.906Z,99597.42
2018-07-14T00:57:11.658Z,99598.23
2018-07-14T00:59:40.375Z,99594.19
2018-07-14T01:02:09.192Z,99587.11
2018-07-14T01:04:37.897Z,99593.11
2018-07-14T01:07:06.585Z,99588.17
2018-07-14T01:09:35.312Z,99588.41
2018-07-14T01:12:04.042Z,99592.98
2018-07-14T01:14:32.761Z,99595.95
2018-07-14T01:17:01.468Z,99594.27
2018-07-14T01:19:30.182Z,99589.33
2018-07-14T01:21:58.953Z,99592.28
2018-07-14T01:24:27.648Z,99597.98
2018-07-14T01:26:56.389Z,99604.00
2018-07-14T01:29:25.199Z,99603.80
2018-07-14T01:31:53.941Z,99606.54
2018-07-14T01:34:22.709Z,99605.50
2018-07-14T01:36:51.401Z,99608.21
2018-07-14T01:39:20.245Z,99612.08
2018-07-14T01:41:49.073Z,99621.07
2018-07-14T01:44:17.786Z,99617.28
2018-07-14T01:46:46.489Z,99624.38
2018-07-14T01:49:15.191Z,99627.60
2018-07-14T01:51:43.905Z,99626.83
2018-07-14T01:54:12.658Z,99627.12
2018-07-14T01:56:41.348Z,99628.98
2018-07-14T01:59:10.072Z,99629.81
2018-07-14T02:01:38.785Z,99629.77
2018-07-14T02:04:07.502Z,99634.95
2018-07-14T02:06:36.221Z,99639.30
2018-07-14T02:09:05.674Z,99637.41
2018-07-14T02:11:34.428Z,99638.18
2018-07-14T02:14:03.180Z,99636.78
2018-07-14T02:16:31.908Z,99633.22
2018-07-14T02:19:00.805Z,99637.61
2018-07-14T02:21:29.508Z,99642.50
2018-07-14T02:23:58.213Z,99643.88
2018-07-14T02:26:26.952Z,99642.54
2018-07-14T02:28:55.654Z,99642.58
2018-07-14T02:31:24.491Z,99644.52
2018-07-14T02:33:53.210Z,99646.12
2018-07-14T02:36:21.913Z,99648.05
2018-07-14T02:38:50.673Z,99642.86
2018-07-14T02:41:19.397Z,99644.50
2018-07-14T02:43:48.158Z,99648.34
2018-07-14T02:46:16.922Z,99647.51
2018-07-14T02:48:45.631Z,99643.11
2018-07-14T02:51:14.332Z,99652.93
2018-07-14T02:53:43.071Z,99655.10
2018-07-14T02:56:11.801Z,99655.14
2018-07-14T02:58:40.537Z,99654.58
2018-07-14T03:01:09.260Z,99658.66
2018-07-14T03:03:37.974Z,99661.38
2018-07-14T03:06:06.733Z,99662.45
2018-07-14T03:08:35.559Z,99663.55
2018-07-14T03:11:04.320Z,99664.06
2018-07-14T03:13:33.049Z,99666.75
2018-07-14T03:16:01.799Z,99666.44
2018-07-14T03:18:30.493Z,99672.34
2018-07-14T03:20:59.253Z,99675.27
2018-07-14T03:23:27.971Z,99669.23
2018-07-14T03:25:56.678Z,99670.28
2018-07-14T03:28:25.404Z,99672.98
2018-07-14T03:30:54.342Z,99678.42
2018-07-14T03:33:23.074Z,99679.73
2018-07-14T03:35:52.291Z,99679.38
2018-07-14T03:38:21.049Z,99677.67
2018-07-14T03:40:49.897Z,99674.19
2018-07-14T03:43:19.189Z,99675.63
2018-07-14T03:45:47.936Z,99674.20
2018-07-14T03:48:16.677Z,99675.14
2018-07-14T03:50:45.417Z,99679.89
2018-07-14T03:53:14.139Z,99674.27
2018-07-14T03:55:42.870Z,99672.08
2018-07-14T03:58:11.765Z,99669.88
2018-07-14T04:00:40.486Z,99672.00
2018-07-14T04:03:09.221Z,99676.11
2018-07-14T04:05:37.958Z,99672.27
2018-07-14T04:08:06.691Z,99673.58
2018-07-14T04:10:35.563Z,99674.25
2018-07-14T04:13:04.286Z,99677.91
2018-07-14T04:15:33.015Z,99675.00
2018-07-14T04:18:04.893Z,99682.70
2018-07-14T04:20:36.307Z,99683.45
2018-07-14T04:23:05.077Z,99676.86
2018-07-14T04:25:33.933Z,99681.89
2018-07-14T04:28:03.009Z,99679.83
2018-07-14T04:30:31.693Z,99680.22
2018-07-14T04:33:00.428Z,99679.16
2018-07-14T04:35:29.193Z,99675.23
2018-07-14T04:37:57.972Z,99672.52
2018-07-14T04:40:26.698Z,99682.50
2018-07-14T04:42:55.469Z,99677.03
2018-07-14T04:45:24.194Z,99675.87
2018-07-14T04:47:53.035Z,99679.11
2018-07-14T04:50:21.761Z,99672.82
2018-07-14T04:52:50.495Z,99676.45
2018-07-14T04:55:19.189Z,99673.04
2018-07-14T04:57:47.922Z,99678.85
2018-07-14T05:00:16.665Z,99687.73
2018-07-14T05:02:45.450Z,99676.66
2018-07-14T05:05:14.627Z,99682.80
2018-07-14T05:07:43.340Z,99687.57
2018-07-14T05:10:12.051Z,99684.28
2018-07-14T05:12:40.813Z,99684.38
2018-07-14T05:15:09.543Z,99682.34
2018-07-14T05:17:38.369Z,99693.22
2018-07-14T05:20:07.311Z,99691.34
2018-07-14T05:22:36.063Z,99692.71
2018-07-14T05:25:04.863Z,99698.31
2018-07-14T05:27:33.583Z,99700.36
2018-07-14T05:30:02.319Z,99694.74
2018-07-14T05:32:31.088Z,99704.41
2018-07-14T05:34:59.821Z,99706.41
2018-07-14T05:37:28.559Z,99705.77
2018-07-14T05:39:57.269Z,99703.06
2018-07-14T05:42:25.993Z,99702.94
2018-07-14T05:44:54.697Z,99700.16
2018-07-14T05:47:23.398Z,99700.33
2018-07-14T05:49:52.154Z,99705.20
2018-07-14T05:52:20.898Z,99711.15
2018-07-14T05:54:49.626Z,99711.21
2018-07-14T05:57:18.343Z,99717.10
2018-07-14T05:59:47.048Z,99719.41
2018-07-14T06:02:15.809Z,99720.28
2018-07-14T06:04:44.530Z,99712.05
2018-07-14T06:07:13.416Z,99712.72
2018-07-14T06:09:42.131Z,99716.86
2018-07-14T06:12:10.860Z,99711.69
2018-07-14T06:14:39.633Z,99714.61
2018-07-14T06:17:08.404Z,99718.55
2018-07-14T06:19:37.198Z,99719.81
2018-07-14T06:22:05.908Z,99712.30
2018-07-14T06:24:34.650Z,99716.58
2018-07-14T06:27:03.427Z,99713.02
2018-07-14T06:29:32.184Z,99712.45
2018-07-14T06:32:00.931Z,99710.39
2018-07-14T06:34:29.669Z,99713.77
2018-07-14T06:36:58.401Z,99713.03
2018-07-14T06:39:27.124Z,99712.44
2018-07-14T06:41:55.850Z,99714.23
2018-07-14T06:44:24.565Z,99717.59
2018-07-14T06:46:53.478Z,99713.70
2018-07-14T06:49:22.232Z,99721.15
2018-07-14T06:51:51.138Z,99705.61
2018-07-14T06:54:19.895Z,99712.48
2018-07-14T06:56:48.678Z,99714.27
2018-07-14T06:59:18.481Z,99720.89
2018-07-14T07:01:47.243Z,99717.55
2018-07-14T07:04:15.993Z,99714.23
2018-07-14T07:06:45.053Z,99717.96
2018-07-14T07:09:13.795Z,99717.08
2018-07-14T07:11:42.569Z,99720.36
2018-07-14T07:14:11.290Z,99724.22
2018-07-14T07:16:40.055Z,99725.06
2018-07-14T07:19:08.765Z,99724.48
2018-07-14T07:21:37.457Z,99718.25
2018-07-14T07:24:06.403Z,99719.70
2018-07-14T07:26:35.311Z,99722.44
2018-07-14T07:29:04.091Z,99715.89
2018-07-14T07:31:32.794Z,99712.92
2018-07-14T07:34:01.599Z,99709.41
2018-07-14T07:36:30.452Z,99710.34
2018-07-14T07:38:59.475Z,99712.92
2018-07-14T07:41:28.195Z,99709.30
2018-07-14T07:43:56.914Z,99708.64
2018-07-14T07:46:25.832Z,99709.98
2018-07-14T07:48:54.587Z,99706.11
2018-07-14T07:51:23.299Z,99716.06
2018-07-14T07:53:52.002Z,99712.13
2018-07-14T07:56:20.702Z,99709.42
2018-07-14T07:58:49.436Z,99704.59
2018-07-14T08:01:18.170Z,99705.14
2018-07-14T08:03:46.880Z,99705.53
2018-07-14T08:06:15.596Z,99703.72
2018-07-14T08:08:44.342Z,99706.28
2018-07-14T08:11:13.039Z,99703.23
2018-07-14T08:13:41.773Z,99695.10
2018-07-14T08:16:10.543Z,99691.89
2018-07-14T08:18:39.233Z,99695.77
2018-07-14T08:21:08.055Z,99695.00
2018-07-14T08:23:36.786Z,99689.44
2018-07-14T08:26:05.596Z,99693.36
2018-07-14T08:28:34.320Z,99687.36
2018-07-14T08:31:03.010Z,99688.50
2018-07-14T08:33:31.729Z,99690.33
2018-07-14T08:36:00.460Z,99693.75
2018-07-14T08:38:29.225Z,99693.92
2018-07-14T08:40:57.933Z,99695.61
2018-07-14T08:43:26.650Z,99695.73
2018-07-14T08:45:55.371Z,99693.05
2018-07-14T08:48:24.253Z,99687.92
2018-07-14T08:50:53.001Z,99681.98
2018-07-14T08:53:21.732Z,99689.52
2018-07-14T08:55:50.459Z,99688.45
2018-07-14T08:58:21.487Z,99682.56
2018-07-14T09:00:50.318Z,99693.49
2018-07-14T09:03:19.072Z,99687.55
2018-07-14T09:05:47.799Z,99685.67
2018-07-14T09:08:16.519Z,99683.33
2018-07-14T09:10:45.474Z,99678.69
2018-07-14T09:13:14.176Z,99680.52
2018-07-14T09:15:42.934Z,99677.24
2018-07-14T09:18:11.671Z,99675.91
2018-07-14T09:20:40.458Z,99675.93
2018-07-14T09:23:09.188Z,99672.62
2018-07-14T09:25:37.928Z,99674.78
2018-07-14T09:28:06.908Z,99676.80
2018-07-14T09:30:35.738Z,99674.16
2018-07-14T09:33:04.598Z,99674.03
2018-07-14T09:35:33.382Z,99664.75
2018-07-14T09:38:02.157Z,99664.83
2018-07-14T09:40:30.866Z,99664.59
2018-07-14T09:42:59.594Z,99660.67
2018-07-14T09:45:28.372Z,99668.55
2018-07-14T09:47:57.961Z,99665.93
2018-07-14T09:50:26.678Z,99665.19
2018-07-14T09:52:55.402Z,99667.48
2018-07-14T09:55:24.112Z,99662.98
2018-07-14T09:57:52.908Z,99664.56
2018-07-14T10:00:26.749Z,99658.17
2018-07-14T10:02:55.453Z,99655.56
2018-07-14T10:05:24.205Z,99651.74
2018-07-14T10:07:52.920Z,99646.67
2018-07-14T10:10:21.617Z,99651.84
2018-07-14T10:12:50.355Z,99648.23
2018-07-14T10:15:19.098Z,99643.73
2018-07-14T10:17:47.869Z,99645.59
2018-07-14T10:20:16.580Z,99640.75
2018-07-14T10:22:45.284Z,99637.74
2018-07-14T10:25:14.056Z,99637.24
2018-07-14T10:27:42.949Z,99630.61
2018-07-14T10:30:11.689Z,99633.34
2018-07-14T10:32:40.434Z,99629.51
2018-07-14T10:35:09.163Z,99638.98
2018-07-14T10:37:37.891Z,99632.00
2018-07-14T10:40:06.653Z,99640.59
2018-07-14T10:42:35.463Z,99626.59
2018-07-14T10:45:04.381Z,99633.39
2018-07-14T10:47:33.118Z,99635.20
2018-07-14T10:50:01.852Z,99629.11
2018-07-14T10:52:30.596Z,99628.39
2018-07-14T10:54:59.349Z,99626.91
2018-07-14T10:57:28.070Z,99624.35
2018-07-14T10:59:56.783Z,99624.30
2018-07-14T11:02:25.494Z,99616.73
2018-07-14T11:04:54.208Z,99616.61
2018-07-14T11:07:22.974Z,99617.91
2018-07-14T11:09:51.697Z,99617.80
2018-07-14T11:12:20.405Z,99611.42
2018-07-14T11:14:49.126Z,99617.00
2018-07-14T11:17:17.850Z,99611.52
2018-07-14T11:19:46.600Z,99607.13
2018-07-14T11:22:15.314Z,99600.64
2018-07-14T11:24:44.015Z,99599.02
2018-07-14T11:27:12.730Z,99586.25
2018-07-14T11:29:41.451Z,99586.84
2018-07-14T11:32:10.188Z,99583.84
2018-07-14T11:34:38.899Z,99581.27
2018-07-14T11:37:07.618Z,99579.97
2018-07-14T11:39:36.561Z,99581.84
2018-07-14T11:42:05.709Z,99573.38
2018-07-14T11:44:34.465Z,99566.12
2018-07-14T11:47:03.469Z,99568.18
2018-07-14T11:49:32.381Z,99558.34
2018-07-14T11:52:01.537Z,99551.16
2018-07-14T11:54:30.757Z,99561.28
2018-07-14T11:56:59.502Z,99551.89
2018-07-14T11:59:28.222Z,99546.16
2018-07-14T12:01:57.008Z,99546.40
2018-07-14T12:04:25.711Z,99537.81
2018-07-14T12:06:54.434Z,99542.09
2018-07-14T12:09:23.169Z,99534.98
2018-07-14T12:11:51.887Z,99538.38
2018-07-14T12:14:20.610Z,99539.65
2018-07-14T12:16:49.350Z,99551.41
2018-07-14T12:19:18.086Z,99540.70
2018-07-14T12:21:46.800Z,99537.52
2018-07-14T12:24:15.526Z,99536.95
2018-07-14T12:26:44.298Z,99533.93
2018-07-14T12:29:12.993Z,99540.24
2018-07-14T12:31:41.718Z,99546.96
2018-07-14T12:34:10.565Z,99546.51
2018-07-14T12:36:39.505Z,99542.94
2018-07-14T12:39:08.321Z,99533.41
2018-07-14T12:41:37.045Z,99531.02
2018-07-14T12:44:05.779Z,99534.55
2018-07-14T12:46:34.557Z,99530.50
2018-07-14T12:49:03.332Z,99530.82
2018-07-14T12:51:32.130Z,99530.80
2018-07-14T12:54:00.871Z,99531.89
2018-07-14T12:56:29.594Z,99529.42
2018-07-14T12:58:58.350Z,99525.25
2018-07-14T13:01:27.062Z,99524.92
2018-07-14T13:03:55.791Z,99513.32
2018-07-14T13:06:24.539Z,99512.76
2018-07-14T13:08:53.289Z,99512.77
2018-07-14T13:11:22.025Z,99513.78
2018-07-14T13:13:50.815Z,99511.38
2018-07-14T13:16:19.534Z,99505.91
2018-07-14T13:18:48.282Z,99508.41
2018-07-14T13:21:17.141Z,99500.22
2018-07-14T13:23:45.917Z,99504.73
2018-07-14T13:26:14.669Z,99492.50
2018-07-14T13:28:43.366Z,99500.88
2018-07-14T13:31:12.131Z,99503.08
2018-07-14T13:33:40.866Z,99498.92
2018-07-14T13:36:09.621Z,99486.09
2018-07-14T13:38:38.345Z,99486.52
2018-07-14T13:41:07.103Z,99489.97
2018-07-14T13:43:35.925Z,99480.95
2018-07-14T13:46:04.650Z,99482.30
2018-07-14T13:48:33.369Z,99484.06
2018-07-14T13:51:02.146Z,99480.68
2018-07-14T13:53:31.162Z,99476.23
2018-07-14T13:55:59.947Z,99462.22
2018-07-14T13:58:29.927Z,99470.34
2018-07-14T14:00:58.723Z,99461.36
2018-07-14T14:03:27.445Z,99461.74
2018-07-14T14:08:58.641Z,99460.02
2018-07-14T14:11:28.286Z,99456.83
2018-07-14T14:13:57.052Z,99457.09
2018-07-14T14:16:25.782Z,99461.09
2018-07-14T14:18:54.513Z,99458.02
2018-07-14T14:21:23.266Z,99456.09
2018-07-14T14:23:52.013Z,99459.70
2018-07-14T14:26:21.410Z,99456.62
2018-07-14T14:28:50.236Z,99452.88
2018-07-14T14:31:18.958Z,99460.14
2018-07-14T14:33:47.738Z,99460.41
2018-07-14T14:36:16.531Z,99453.05
2018-07-14T14:38:45.538Z,99456.52
2018-07-14T14:41:14.261Z,99450.44
2018-07-14T14:43:43.052Z,99450.77
2018-07-14T14:46:11.794Z,99451.31
2018-07-14T14:48:40.562Z,99443.09
2018-07-14T14:51:09.366Z,99446.12
2018-07-14T14:53:38.097Z,99444.92
2018-07-14T14:56:07.084Z,99446.30
2018-07-14T14:58:35.850Z,99436.27
2018-07-14T15:01:05.473Z,99447.14
2018-07-14T15:03:34.481Z,99442.63
2018-07-14T15:06:03.343Z,99443.38
2018-07-14T15:08:32.160Z,99429.23
2018-07-14T15:11:00.891Z,99437.64
2018-07-14T15:13:29.882Z,99428.41
2018-07-14T15:15:58.627Z,99430.15
2018-07-14T15:18:27.724Z,99426.22
2018-07-14T15:20:56.502Z,99427.96
2018-07-14T15:23:25.998Z,99431.52
2018-07-14T15:25:54.817Z,99417.66
2018-07-14T15:28:23.573Z,99422.33
2018-07-14T15:30:52.950Z,99418.05
2018-07-14T15:33:21.900Z,99420.16
2018-07-14T15:35:50.651Z,99420.03
2018-07-14T15:38:19.434Z,99423.63
2018-07-14T15:40:48.171Z,99418.72
2018-07-14T15:43:16.975Z,99419.19
2018-07-14T15:45:45.730Z,99414.81
2018-07-14T15:48:14.523Z,99425.86
2018-07-14T15:50:43.282Z,99411.85
2018-07-14T15:53:12.142Z,99426.59
2018-07-14T15:55:40.912Z,99418.54
2018-07-14T15:58:09.671Z,99420.59
2018-07-14T16:00:38.425Z,99423.14
2018-07-14T16:03:07.447Z,99424.97
2018-07-14T16:05:39.701Z,99424.17
2018-07-14T16:08:08.718Z,99427.83
2018-07-14T16:10:37.494Z,99428.09
2018-07-14T16:13:06.338Z,99423.47
2018-07-14T16:15:35.287Z,99422.09
2018-07-14T16:18:04.052Z,99420.39
2018-07-14T16:20:32.806Z,99419.45
2018-07-14T16:23:01.934Z,99422.20
2018-07-14T16:25:30.743Z,99415.22
2018-07-14T16:27:59.586Z,99411.08
2018-07-14T16:30:28.337Z,99415.78
2018-07-14T16:32:57.132Z,99415.30
2018-07-14T16:35:25.874Z,99416.13
2018-07-14T16:37:54.603Z,99418.92
2018-07-14T16:40:23.326Z,99419.15
2018-07-14T16:42:52.104Z,99411.58
2018-07-14T16:45:20.818Z,99413.97
2018-07-14T16:47:49.552Z,99418.09
2018-07-14T16:50:18.571Z,99417.18
2018-07-14T16:52:47.287Z,99410.48
2018-07-14T16:55:16.074Z,99415.08
2018-07-14T16:57:44.832Z,99419.85
2018-07-14T17:00:13.598Z,99420.31
2018-07-14T17:02:42.323Z,99420.92
2018-07-14T17:05:11.049Z,99418.48
2018-07-14T17:07:39.835Z,99419.75
2018-07-14T17:10:08.569Z,99422.44
2018-07-14T17:12:37.269Z,99421.60
2018-07-14T17:15:05.994Z,99422.45
2018-07-14T17:17:34.736Z,99422.72
2018-07-14T17:20:03.496Z,99416.41
2018-07-14T17:22:32.271Z,99414.14
2018-07-14T17:25:00.979Z,99406.28
2018-07-14T17:27:29.674Z,99410.02
2018-07-14T17:29:58.425Z,99412.33
2018-07-14T17:32:27.156Z,99414.61
2018-07-14T17:34:55.863Z,99418.45
2018-07-14T17:37:24.603Z,99420.41
2018-07-14T17:39:53.346Z,99416.15
2018-07-14T17:42:22.274Z,99418.86
2018-07-14T17:44:51.099Z,99416.20
2018-07-14T17:47:20.302Z,99424.53
2018-07-14T17:49:49.118Z,99426.88
2018-07-14T17:52:17.921Z,99428.23
2018-07-14T17:54:46.657Z,99432.09
2018-07-14T17:57:15.377Z,99437.58
2018-07-14T17:59:44.133Z,99437.92
2018-07-14T18:02:12.923Z,99441.45
2018-07-14T18:04:41.802Z,99453.20
2018-07-14T18:07:10.583Z,99446.70
2018-07-14T18:09:39.454Z,99456.81
2018-07-14T18:12:08.146Z,99450.06
2018-07-14T18:14:37.019Z,99457.45
2018-07-14T18:17:06.226Z,99464.70
2018-07-14T18:19:35.029Z,99467.56
2018-07-14T18:22:03.755Z,99473.19
2018-07-14T18:24:32.463Z,99474.06
2018-07-14T18:27:01.530Z,99478.52
2018-07-14T18:29:30.288Z,99481.41
2018-07-14T18:31:59.015Z,99478.70
2018-07-14T18:34:27.770Z,99487.31
2018-07-14T18:36:56.485Z,99488.79
2018-07-14T18:39:25.310Z,99491.91
2018-07-14T18:41:54.292Z,99489.67
2018-07-14T18:44:23.195Z,99490.52
2018-07-14T18:46:51.926Z,99497.17
2018-07-14T18:49:20.709Z,99496.81
2018-07-14T18:51:49.682Z,99499.80
2018-07-14T18:54:18.388Z,99499.93
2018-07-14T18:56:47.133Z,99504.70
2018-07-14T18:59:15.882Z,99499.22
2018-07-14T19:01:44.625Z,99510.81
2018-07-14T19:04:13.498Z,99509.91
2018-07-14T19:06:42.354Z,99512.09
2018-07-14T19:09:11.235Z,99513.33
2018-07-14T19:11:39.982Z,99511.36
2018-07-14T19:14:08.720Z,99518.66
2018-07-14T19:16:37.518Z,99518.09
2018-07-14T19:19:06.358Z,99522.48
2018-07-14T19:21:35.123Z,99522.37
2018-07-14T19:24:03.902Z,99523.02
2018-07-14T19:26:32.737Z,99531.67
2018-07-14T19:29:01.490Z,99527.41
2018-07-14T19:31:30.429Z,99530.52
2018-07-14T19:33:59.266Z,99531.39
2018-07-14T19:36:28.043Z,99533.59
2018-07-14T19:38:56.969Z,99531.73
2018-07-14T19:41:25.798Z,99525.09
2018-07-14T19:43:54.754Z,99531.80
2018-07-14T19:46:23.521Z,99537.70
2018-07-14T19:48:52.319Z,99537.20
2018-07-14T19:51:21.105Z,99540.68
2018-07-14T19:53:49.960Z,99542.92
2018-07-14T19:56:18.882Z,99538.66
2018-07-14T19:58:47.649Z,99536.42
2018-07-14T20:01:16.461Z,99542.11
2018-07-14T20:03:45.193Z,99540.03
2018-07-14T20:06:14.026Z,99537.45
2018-07-14T20:08:42.759Z,99539.71
2018-07-14T20:11:11.564Z,99542.25
2018-07-14T20:13:40.378Z,99538.77
2018-07-14T20:16:10.402Z,99535.55
2018-07-14T20:18:40.202Z,99536.22
2018-07-14T20:21:09.546Z,99537.39
2018-07-14T20:23:38.736Z,99535.53
2018-07-14T20:26:07.938Z,99536.67
2018-07-14T20:28:37.150Z,99534.83
2018-07-14T20:31:06.335Z,99535.19
2018-07-14T20:33:35.541Z,99534.80
2018-07-14T20:36:04.813Z,99534.91
2018-07-14T20:38:34.141Z,99533.95
2018-07-14T20:41:03.445Z,99544.37
2018-07-14T20:43:32.725Z,99540.76
2018-07-14T20:46:01.859Z,99538.91
2018-07-14T20:48:30.861Z,99542.02
2018-07-14T20:50:59.794Z,99545.31
2018-07-14T20:53:29.127Z,99544.02
2018-07-14T20:55:58.210Z,99551.08
2018-07-14T20:58:27.511Z,99552.77
2018-07-14T21:00:56.598Z,99551.41
2018-07-14T21:03:25.830Z,99553.88
2018-07-14T21:05:55.242Z,99555.28
2018-07-14T21:08:24.515Z,99553.97
2018-07-14T21:10:53.754Z,99561.06
2018-07-14T21:13:22.736Z,99553.16
2018-07-14T21:15:51.898Z,99558.52
2018-07-14T21:18:21.109Z,99556.86
2018-07-14T21:20:50.306Z,99558.25
2018-07-14T21:23:19.501Z,99557.45
2018-07-14T21:25:48.795Z,99558.63
2018-07-14T21:28:18.074Z,99553.00
2018-07-14T21:30:47.202Z,99559.44
2018-07-14T21:33:16.403Z,99558.30
2018-07-14T21:35:45.611Z,99561.09
2018-07-14T21:38:14.861Z,99555.50
2018-07-14T21:40:43.778Z,99559.14
2018-07-14T21:43:13.086Z,99557.98
2018-07-14T21:45:42.101Z,99559.42
2018-07-14T21:48:11.323Z,99558.41
2018-07-14T21:50:40.504Z,99555.82
2018-07-14T21:53:09.670Z,99558.55
2018-07-14T21:55:38.915Z,99553.27
2018-07-14T21:58:08.056Z,99560.13
2018-07-14T22:00:42.314Z,99550.86
2018-07-14T22:03:11.566Z,99557.41
2018-07-14T22:05:40.698Z,99552.05
2018-07-14T22:08:09.990Z,99552.13
2018-07-14T22:10:39.192Z,99551.02
2018-07-14T22:13:08.390Z,99555.92
2018-07-14T22:15:37.575Z,99551.07
2018-07-14T22:18:06.804Z,99551.47
2018-07-14T22:20:36.069Z,99556.96
2018-07-14T22:23:05.116Z,99554.02
2018-07-14T22:25:34.198Z,99549.64
2018-07-14T22:28:03.069Z,99549.42
2018-07-14T22:30:32.106Z,99554.67
2018-07-14T22:33:01.346Z,99559.30
2018-07-14T22:35:30.537Z,99557.10
2018-07-14T22:37:59.745Z,99551.95
2018-07-14T22:40:28.943Z,99549.20
2018-07-14T22:42:58.164Z,99545.41
2018-07-14T22:45:27.615Z,99543.27
2018-07-14T22:47:56.646Z,99549.55
2018-07-14T22:50:25.932Z,99545.02
2018-07-14T22:52:55.146Z,99542.91
2018-07-14T22:55:24.523Z,99551.64
2018-07-14T22:57:53.733Z,99547.04
2018-07-14T23:00:22.933Z,99539.74
2018-07-14T23:02:52.145Z,99550.08
2018-07-14T23:05:21.490Z,99537.31
2018-07-14T23:07:50.678Z,99541.18
2018-07-14T23:10:19.826Z,99546.08
2018-07-14T23:12:49.046Z,99542.83
2018-07-14T23:15:18.083Z,99541.19
2018-07-14T23:17:47.244Z,99539.58
2018-07-14T23:20:16.429Z,99543.65
2018-07-14T23:22:45.729Z,99540.95
2018-07-14T23:25:15.021Z,99538.22
2018-07-14T23:27:44.117Z,99546.92
2018-07-14T23:30:13.308Z,99542.84
2018-07-14T23:32:42.552Z,99548.02
2018-07-14T23:35:11.710Z,99549.66
2018-07-14T23:37:40.909Z,99550.73
2018-07-14T23:40:10.193Z,99547.20
2018-07-14T23:42:39.098Z,99546.16
2018-07-14T23:45:08.377Z,99551.61
2018-07-14T23:47:37.294Z,99548.38
2018-07-14T23:50:06.491Z,99549.19
2018-07-14T23:52:35.696Z,99537.53
2018-07-14T23:55:05.019Z,99550.29
2018-07-14T23:57:34.217Z,99544.56
